Time;durP1;ratioP1;P1;durP2;ratioP2;P2;SDS_P1;SDS_P2;PMS_P1;PMS_P2;Temp;Humidity;BMP_temperature;BMP_pressure;BME280_temperature;BME280_humidity;BME280_pressure;Samples;Min_cycle;Max_cycle;Signal;HPM_P1;HPM_P2
2023/06/05 00:00:10;;;;;;;4.45;3.65;;;;;;;11.97;79.06;102397.47;6249078;22;20027;-79
2023/06/05 00:02:39;;;;;;;4.78;4.20;;;;;;;11.94;79.24;102395.63;6250376;22;20021;-79
2023/06/05 00:05:08;;;;;;;4.60;4.20;;;;;;;11.95;79.29;102397.13;6246797;22;20074;-80
2023/06/05 00:07:37;;;;;;;5.07;4.60;;;;;;;11.92;79.33;102395.28;6250010;22;20425;-79
2023/06/05 00:10:06;;;;;;;6.88;4.05;;;;;;;11.91;79.21;102390.34;6249533;22;20024;-80
2023/06/05 00:12:32;;;;;;;4.90;4.30;;;;;;;11.83;79.94;102400.38;6250054;22;20023;-80
2023/06/05 00:14:59;;;;;;;6.78;4.25;;;;;;;11.82;79.84;102403.47;6249719;22;20023;-80
2023/06/05 00:17:26;;;;;;;5.50;3.88;;;;;;;11.81;79.88;102392.03;6248192;22;20517;-79
2023/06/05 00:19:53;;;;;;;6.32;4.40;;;;;;;11.79;79.96;102391.69;6222038;22;20059;-80
2023/06/05 00:22:20;;;;;;;4.88;4.22;;;;;;;11.75;80.10;102390.19;6247870;22;20023;-79
2023/06/05 00:24:46;;;;;;;6.85;4.20;;;;;;;11.74;80.47;102386.03;6248160;22;20051;-79
2023/06/05 00:27:13;;;;;;;6.90;4.40;;;;;;;11.70;80.36;102388.75;6250119;22;20013;-79
2023/06/05 00:29:40;;;;;;;4.90;4.50;;;;;;;11.65;81.21;102389.97;6248155;22;20028;-80
2023/06/05 00:32:06;;;;;;;11.00;5.07;;;;;;;11.63;81.33;102386.94;6247499;22;20277;-79
2023/06/05 00:34:33;;;;;;;5.60;4.40;;;;;;;11.61;80.49;102391.94;6249314;22;20091;-79
2023/06/05 00:37:00;;;;;;;5.65;4.43;;;;;;;11.58;80.94;102392.78;6249422;22;20051;-79
2023/06/05 00:39:27;;;;;;;4.50;4.10;;;;;;;11.54;81.64;102384.06;6247597;22;20025;-79
2023/06/05 00:41:53;;;;;;;6.63;4.45;;;;;;;11.49;81.76;102392.53;6247493;22;20406;-78
2023/06/05 00:44:20;;;;;;;6.20;4.25;;;;;;;11.46;82.12;102392.59;6249669;22;20506;-78
2023/06/05 00:46:50;;;;;;;5.90;4.70;;;;;;;11.42;82.45;102394.56;6248052;22;20020;-78
2023/06/05 00:49:18;;;;;;;7.25;4.75;;;;;;;11.38;82.68;102394.59;6247267;22;20096;-78
2023/06/05 00:51:45;;;;;;;5.65;4.55;;;;;;;11.38;82.53;102399.94;6248156;22;20120;-79
2023/06/05 00:54:13;;;;;;;5.22;4.72;;;;;;;11.35;83.11;102396.16;6221587;22;20450;-78
2023/06/05 00:56:42;;;;;;;9.50;4.60;;;;;;;11.31;82.67;102397.38;6247749;22;20434;-79
2023/06/05 00:59:09;;;;;;;5.70;4.65;;;;;;;11.30;83.27;102393.19;6248688;22;20017;-79
2023/06/05 01:01:36;;;;;;;5.60;4.93;;;;;;;11.26;83.40;102387.91;6248057;22;20027;-79
2023/06/05 01:04:02;;;;;;;5.90;4.88;;;;;;;11.25;83.23;102385.66;6247116;22;20017;-79
2023/06/05 01:06:34;;;;;;;9.30;5.10;;;;;;;11.22;83.45;102389.88;6249545;22;20450;-79
2023/06/05 01:09:02;;;;;;;6.32;4.15;;;;;;;11.22;83.97;102391.78;6249418;22;20384;-79
2023/06/05 01:11:37;;;;;;;6.82;4.68;;;;;;;11.19;83.42;102393.38;6247347;22;20095;-79
2023/06/05 01:14:16;;;;;;;8.57;4.57;;;;;;;11.16;83.03;102391.53;6247804;22;20067;-79
2023/06/05 01:16:50;;;;;;;5.80;4.75;;;;;;;11.15;83.75;102391.91;6249747;22;20013;-79
2023/06/05 01:19:17;;;;;;;6.75;5.00;;;;;;;11.10;83.92;102387.03;6221801;22;20442;-79
2023/06/05 01:21:44;;;;;;;5.93;5.28;;;;;;;11.06;83.84;102381.00;6249775;22;20518;-79
2023/06/05 01:24:13;;;;;;;7.63;5.20;;;;;;;11.03;84.38;102387.91;6246996;22;20451;-79
2023/06/05 01:26:52;;;;;;;6.30;5.43;;;;;;;11.02;84.23;102381.06;6247603;22;20016;-79
2023/06/05 01:29:33;;;;;;;8.85;4.97;;;;;;;10.98;84.24;102373.09;6247307;22;20059;-79
2023/06/05 01:32:06;;;;;;;4.93;4.53;;;;;;;10.98;84.68;102383.75;6248981;22;20067;-79
2023/06/05 01:34:36;;;;;;;7.72;5.35;;;;;;;10.95;84.72;102373.91;6248053;22;20013;-79
2023/06/05 01:37:03;;;;;;;6.57;5.30;;;;;;;10.92;84.92;102374.72;6247488;22;20077;-79
2023/06/05 01:39:30;;;;;;;5.18;4.78;;;;;;;10.89;84.98;102374.75;6247745;22;20056;-78
2023/06/05 01:41:58;;;;;;;10.02;5.03;;;;;;;10.87;85.00;102367.16;6247058;22;20104;-79
2023/06/05 01:44:26;;;;;;;7.25;5.20;;;;;;;10.84;85.00;102367.97;6222055;22;20027;-79
2023/06/05 01:46:53;;;;;;;6.03;5.47;;;;;;;10.83;85.48;102365.69;6248560;22;20013;-78
2023/06/05 01:49:21;;;;;;;8.43;4.82;;;;;;;10.79;85.63;102365.78;6248966;22;20453;-78
2023/06/05 01:51:48;;;;;;;7.45;5.22;;;;;;;10.78;85.31;102364.25;6249448;22;20087;-79
2023/06/05 01:54:15;;;;;;;6.93;5.82;;;;;;;10.76;85.18;102361.25;6248939;22;20052;-78
2023/06/05 01:56:43;;;;;;;5.38;4.97;;;;;;;10.72;85.75;102360.53;6249391;22;20013;-79
2023/06/05 01:59:10;;;;;;;5.53;5.07;;;;;;;10.69;85.91;102361.34;6246370;22;20028;-78
2023/06/05 02:01:37;;;;;;;5.90;5.35;;;;;;;10.68;86.27;102360.59;6246871;22;20023;-78
2023/06/05 02:04:04;;;;;;;5.80;5.05;;;;;;;10.66;86.13;102359.47;6247011;22;20020;-79
2023/06/05 02:06:42;;;;;;;7.80;4.85;;;;;;;10.62;86.19;102353.44;6247672;22;20021;-79
2023/06/05 02:09:12;;;;;;;6.00;5.35;;;;;;;10.62;86.26;102358.75;6248230;22;20099;-79
2023/06/05 02:11:42;;;;;;;7.53;5.55;;;;;;;10.59;86.41;102359.56;6249115;22;20021;-80
2023/06/05 02:14:12;;;;;;;5.97;5.50;;;;;;;10.56;86.47;102353.13;6249579;22;20409;-80
2023/06/05 02:16:40;;;;;;;9.95;5.45;;;;;;;10.51;86.96;102356.22;6247918;22;20075;-79
2023/06/05 02:19:07;;;;;;;8.48;5.65;;;;;;;10.50;87.06;102354.72;6222720;22;20020;-80
2023/06/05 02:21:33;;;;;;;7.93;5.88;;;;;;;10.47;86.92;102350.19;6249158;22;20020;-78
2023/06/05 02:24:00;;;;;;;5.68;5.18;;;;;;;10.45;86.89;102352.50;6248431;22;20020;-77
2023/06/05 02:26:28;;;;;;;5.72;5.22;;;;;;;10.42;87.11;102347.97;6248246;22;20023;-77
2023/06/05 02:28:56;;;;;;;5.78;4.75;;;;;;;10.41;87.24;102348.34;6248118;22;20024;-77
2023/06/05 02:31:25;;;;;;;10.57;5.53;;;;;;;10.38;87.24;102352.59;6247608;22;20043;-79
2023/06/05 02:33:55;;;;;;;7.00;5.40;;;;;;;10.34;87.23;102341.25;6248203;22;20433;-79
2023/06/05 02:36:24;;;;;;;7.32;5.47;;;;;;;10.32;87.69;102343.53;6248195;22;20021;-79
2023/06/05 02:38:52;;;;;;;9.48;5.13;;;;;;;10.28;87.42;102345.50;6248650;22;20021;-80
2023/06/05 02:41:21;;;;;;;6.18;5.10;;;;;;;10.28;87.70;102346.25;6247906;22;20021;-79
2023/06/05 02:43:48;;;;;;;6.25;5.65;;;;;;;10.27;87.82;102347.41;6248517;22;20016;-79
2023/06/05 02:46:15;;;;;;;5.85;5.30;;;;;;;10.26;87.41;102342.47;6222330;22;20017;-78
2023/06/05 02:48:43;;;;;;;7.18;5.65;;;;;;;10.24;87.44;102339.44;6223350;22;20080;-79
2023/06/05 02:51:10;;;;;;;6.22;5.57;;;;;;;10.23;87.62;102343.25;6248040;22;20396;-79
2023/06/05 02:53:39;;;;;;;6.60;5.55;;;;;;;10.20;87.79;102342.16;6248400;22;20021;-78
2023/06/05 02:56:05;;;;;;;6.85;5.97;;;;;;;10.18;87.57;102341.75;6222577;22;20099;-79
2023/06/05 02:58:33;;;;;;;8.90;5.45;;;;;;;10.15;87.91;102341.78;6248506;22;20421;-79
2023/06/05 03:01:06;;;;;;;6.70;5.65;;;;;;;10.13;88.01;102339.53;6247169;22;20035;-78
2023/06/05 03:03:40;;;;;;;7.65;5.72;;;;;;;10.11;87.85;102330.44;6248814;22;20116;-79
2023/06/05 03:06:11;;;;;;;9.30;5.53;;;;;;;10.09;87.88;102333.50;6247620;22;20358;-79
2023/06/05 03:08:44;;;;;;;6.60;5.53;;;;;;;10.08;87.96;102325.91;6248609;22;20429;-79
2023/06/05 03:11:15;;;;;;;11.40;6.28;;;;;;;10.03;88.58;102330.50;6224051;22;20442;-79
2023/06/05 03:13:42;;;;;;;8.48;5.47;;;;;;;10.01;88.18;102330.16;6247837;22;20017;-79
2023/06/05 03:16:10;;;;;;;7.90;5.88;;;;;;;10.00;88.50;102327.88;6247583;22;20021;-79
2023/06/05 03:18:41;;;;;;;5.88;5.38;;;;;;;9.98;88.52;102330.22;6223561;22;20056;-79
2023/06/05 03:21:10;;;;;;;8.60;5.78;;;;;;;9.95;88.17;102326.44;6247229;22;20021;-78
2023/06/05 03:23:36;;;;;;;5.93;5.22;;;;;;;9.93;88.41;102322.66;6248073;22;20083;-78
2023/06/05 03:26:04;;;;;;;7.68;5.50;;;;;;;9.92;88.28;102324.56;6247772;22;20388;-78
2023/06/05 03:28:33;;;;;;;8.73;5.82;;;;;;;9.89;88.82;102314.72;6247093;22;20024;-78
2023/06/05 03:31:03;;;;;;;6.97;5.38;;;;;;;9.86;88.98;102315.50;6247315;22;20024;-79
2023/06/05 03:33:34;;;;;;;8.68;6.40;;;;;;;9.86;89.06;102318.16;6224013;22;20020;-78
2023/06/05 03:36:02;;;;;;;8.45;5.93;;;;;;;9.84;89.31;102325.78;6222517;22;20442;-78
2023/06/05 03:38:30;;;;;;;6.10;5.50;;;;;;;9.86;89.26;102314.75;6247864;22;20071;-78
2023/06/05 03:40:56;;;;;;;7.32;6.20;;;;;;;9.86;88.99;102317.41;6247769;22;20016;-78
2023/06/05 03:43:24;;;;;;;7.28;5.88;;;;;;;9.86;88.97;102320.81;6221794;22;20016;-78
2023/06/05 03:45:53;;;;;;;9.50;6.07;;;;;;;9.85;89.00;102318.56;6247782;22;20079;-78
2023/06/05 03:48:20;;;;;;;9.18;5.50;;;;;;;9.86;88.99;102323.50;6247564;22;20416;-78
2023/06/05 03:50:53;;;;;;;9.82;7.30;;;;;;;9.88;89.35;102325.75;6247688;22;20016;-78
2023/06/05 03:53:19;;;;;;;8.17;6.67;;;;;;;9.87;88.38;102324.25;6247823;22;20020;-78
2023/06/05 03:55:46;;;;;;;7.55;6.20;;;;;;;9.87;89.14;102318.91;6248051;22;20232;-78
2023/06/05 03:58:20;;;;;;;8.63;6.10;;;;;;;9.89;89.25;102319.28;6223335;22;20095;-78
2023/06/05 04:00:50;;;;;;;7.45;6.28;;;;;;;9.89;89.23;102322.69;6223022;22;20091;-78
2023/06/05 04:03:18;;;;;;;10.75;6.30;;;;;;;9.89;89.11;102317.38;6247926;22;20350;-78
2023/06/05 04:05:45;;;;;;;9.25;6.35;;;;;;;9.93;88.93;102322.66;6249541;22;20017;-78
2023/06/05 04:08:11;;;;;;;8.25;6.22;;;;;;;9.96;88.60;102322.63;6222454;22;20537;-79
2023/06/05 04:10:40;;;;;;;8.68;6.10;;;;;;;9.99;88.75;102329.06;6248061;22;20536;-78
2023/06/05 04:13:07;;;;;;;8.93;6.32;;;;;;;10.00;88.41;102325.22;6246719;22;20581;-78
2023/06/05 04:15:35;;;;;;;7.72;6.20;;;;;;;10.03;88.33;102332.41;6247662;22;20394;-78
2023/06/05 04:18:03;;;;;;;8.40;6.55;;;;;;;10.05;88.58;102330.13;6247782;22;20024;-77
2023/06/05 04:20:30;;;;;;;11.68;6.40;;;;;;;10.08;88.60;102326.66;6248094;22;20074;-78
2023/06/05 04:22:57;;;;;;;9.57;6.50;;;;;;;10.13;88.03;102331.56;6247302;22;20017;-78
2023/06/05 04:25:28;;;;;;;7.72;6.60;;;;;;;10.18;88.32;102333.78;6247438;22;20021;-78
2023/06/05 04:27:56;;;;;;;7.88;6.03;;;;;;;10.22;87.79;102331.84;6249137;22;20021;-78
2023/06/05 04:30:23;;;;;;;7.22;6.13;;;;;;;10.25;87.62;102332.97;6247576;22;20386;-79
2023/06/05 04:32:54;;;;;;;9.32;6.50;;;;;;;10.29;87.38;102326.47;6223262;22;20063;-78
2023/06/05 04:35:23;;;;;;;10.15;6.65;;;;;;;10.31;87.36;102328.72;6248142;22;20044;-79
2023/06/05 04:37:50;;;;;;;9.93;6.43;;;;;;;10.36;87.25;102336.28;6248425;22;20443;-76
2023/06/05 04:40:20;;;;;;;7.97;7.00;;;;;;;10.68;87.01;102344.59;6247996;22;20395;-79
2023/06/05 04:42:48;;;;;;;10.77;7.03;;;;;;;11.20;84.72;102346.13;6248714;22;20027;-79
2023/06/05 04:45:16;;;;;;;9.23;6.28;;;;;;;11.70;82.50;102348.72;6223129;22;20443;-79
2023/06/05 04:47:46;;;;;;;10.68;6.45;;;;;;;12.84;78.41;102355.25;6248713;22;20024;-81
2023/06/05 04:50:25;;;;;;;8.32;6.18;;;;;;;14.32;73.63;102351.97;6248120;22;20052;-79
2023/06/05 04:52:55;;;;;;;9.80;6.47;;;;;;;15.12;68.25;102358.00;6251788;22;20048;-81
2023/06/05 04:55:22;;;;;;;6.88;5.90;;;;;;;15.64;66.03;102362.81;6247695;22;20017;-80
2023/06/05 04:57:53;;;;;;;7.32;6.22;;;;;;;16.24;63.37;102359.19;6223895;22;20025;-78
2023/06/05 05:00:19;;;;;;;9.18;6.22;;;;;;;16.78;60.83;102361.41;6248098;22;20025;-83
2023/06/05 05:02:47;;;;;;;10.15;6.60;;;;;;;17.26;59.40;102359.13;6223586;22;20032;-77
2023/06/05 05:05:14;;;;;;;9.45;6.13;;;;;;;17.70;57.73;102367.69;6248163;22;20382;-77
2023/06/05 05:07:43;;;;;;;7.57;6.05;;;;;;;18.01;57.06;102367.50;6248522;22;20108;-81
2023/06/05 05:10:11;;;;;;;6.95;5.85;;;;;;;18.31;55.47;102361.16;6247737;22;20020;-81
2023/06/05 05:12:38;;;;;;;6.72;5.80;;;;;;;18.36;55.11;102365.19;6248688;22;20079;-79
2023/06/05 05:15:06;;;;;;;7.13;6.30;;;;;;;18.47;54.67;102364.69;6248105;22;20080;-81
2023/06/05 05:17:33;;;;;;;8.82;6.07;;;;;;;18.76;53.37;102364.16;6223267;22;20493;-80
2023/06/05 05:20:00;;;;;;;10.63;6.13;;;;;;;18.91;53.12;102365.72;6248874;22;20016;-80
2023/06/05 05:22:28;;;;;;;7.47;6.35;;;;;;;18.90;52.89;102364.22;6248135;22;20104;-79
2023/06/05 05:24:56;;;;;;;9.05;6.07;;;;;;;19.11;52.63;102359.75;6248558;22;20017;-79
2023/06/05 05:27:24;;;;;;;14.68;6.65;;;;;;;19.01;52.10;102368.38;6247981;22;20024;-79
2023/06/05 05:29:51;;;;;;;14.35;6.68;;;;;;;19.21;52.22;102369.25;6223152;22;20024;-79
2023/06/05 05:32:19;;;;;;;6.53;5.90;;;;;;;19.27;51.67;102361.28;6249777;22;20016;-79
2023/06/05 05:34:47;;;;;;;7.90;6.40;;;;;;;18.97;52.20;102373.94;6248733;22;20047;-85
2023/06/05 05:37:14;;;;;;;7.38;6.57;;;;;;;18.81;52.67;102358.13;6223154;22;20436;-78
2023/06/05 05:39:40;;;;;;;12.43;5.90;;;;;;;19.02;52.91;102356.34;6247827;22;20016;-79
2023/06/05 05:42:07;;;;;;;7.00;6.28;;;;;;;19.01;52.56;102365.66;6248211;22;20044;-79
2023/06/05 05:44:35;;;;;;;9.05;5.80;;;;;;;19.05;52.25;102363.53;6223066;22;20048;-79
2023/06/05 05:47:02;;;;;;;7.70;6.20;;;;;;;18.58;53.59;102363.00;6250139;22;20021;-80
2023/06/05 05:49:28;;;;;;;8.18;5.90;;;;;;;18.43;53.30;102366.78;6249797;22;20017;-79
2023/06/05 05:51:55;;;;;;;9.13;6.47;;;;;;;18.34;54.56;102367.59;6250402;22;20144;-79
2023/06/05 05:54:26;;;;;;;7.50;6.35;;;;;;;18.50;54.50;102374.56;6248762;22;20417;-79
2023/06/05 05:56:54;;;;;;;15.23;7.07;;;;;;;18.34;54.61;102364.91;6250162;22;20358;-78
2023/06/05 05:59:21;;;;;;;7.93;5.60;;;;;;;18.08;54.73;102364.50;6249361;22;20430;-78
2023/06/05 06:01:48;;;;;;;6.68;6.03;;;;;;;17.96;55.92;102366.19;6248023;22;20106;-78
2023/06/05 06:04:18;;;;;;;8.52;6.22;;;;;;;18.08;55.59;102371.84;6247815;22;20024;-79
2023/06/05 06:06:52;;;;;;;7.07;6.43;;;;;;;17.90;55.57;102375.31;6249912;22;20354;-78
2023/06/05 06:09:18;;;;;;;6.85;6.22;;;;;;;17.63;56.59;102367.97;6221978;22;20031;-81
2023/06/05 06:11:46;;;;;;;10.13;6.78;;;;;;;17.62;56.41;102375.28;6250021;22;20036;-80
2023/06/05 06:14:12;;;;;;;6.93;5.95;;;;;;;17.56;56.38;102370.97;6247826;22;20024;-79
2023/06/05 06:16:40;;;;;;;7.05;5.80;;;;;;;17.47;57.68;102374.41;6249845;22;20028;-77
2023/06/05 06:19:06;;;;;;;7.35;6.35;;;;;;;17.61;57.12;102368.41;6249585;22;20009;-77
2023/06/05 06:21:33;;;;;;;6.97;6.28;;;;;;;17.36;57.37;102371.41;6249873;22;20422;-78
2023/06/05 06:23:59;;;;;;;6.78;6.18;;;;;;;17.34;57.77;102373.78;6247567;22;20453;-79
2023/06/05 06:26:26;;;;;;;7.10;6.40;;;;;;;17.43;58.19;102373.06;6249353;22;20020;-79
2023/06/05 06:28:54;;;;;;;9.50;6.60;;;;;;;17.41;57.55;102370.81;6249656;22;20063;-79
2023/06/05 06:31:21;;;;;;;8.90;6.53;;;;;;;17.35;58.54;102372.59;6249558;22;20012;-79
2023/06/05 06:33:48;;;;;;;7.00;6.40;;;;;;;17.51;58.37;102376.94;6248037;22;20034;-77
2023/06/05 06:36:16;;;;;;;6.90;6.30;;;;;;;17.60;57.73;102377.69;6247705;22;20024;-77
2023/06/05 06:38:43;;;;;;;7.00;6.18;;;;;;;17.66;58.06;102380.56;6247152;22;20451;-77
2023/06/05 06:41:10;;;;;;;8.10;6.40;;;;;;;17.54;58.41;102378.75;6249044;22;20435;-77
2023/06/05 06:43:36;;;;;;;7.88;6.35;;;;;;;17.47;58.56;102369.03;6249365;22;20041;-78
2023/06/05 06:46:04;;;;;;;7.28;6.25;;;;;;;17.73;58.01;102372.19;6249482;22;20099;-78
2023/06/05 06:48:32;;;;;;;8.40;5.88;;;;;;;17.68;57.12;102378.16;6249555;22;20095;-77
2023/06/05 06:50:59;;;;;;;8.85;6.40;;;;;;;17.48;57.76;102370.50;6248808;22;20027;-78
2023/06/05 06:53:26;;;;;;;6.68;6.03;;;;;;;17.45;57.72;102374.09;6249749;22;20332;-79
2023/06/05 06:55:52;;;;;;;6.93;6.22;;;;;;;17.50;57.74;102376.19;6251140;22;20052;-80
2023/06/05 06:58:19;;;;;;;7.18;6.15;;;;;;;17.66;57.42;102375.16;6248820;22;20016;-79
2023/06/05 07:00:47;;;;;;;9.55;6.13;;;;;;;17.86;57.69;102375.47;6250532;22;20087;-80
2023/06/05 07:03:13;;;;;;;10.98;6.38;;;;;;;18.00;57.03;102379.47;6249087;22;20019;-78
2023/06/05 07:05:40;;;;;;;7.55;6.25;;;;;;;18.11;56.40;102387.84;6250333;22;20056;-78
2023/06/05 07:08:06;;;;;;;8.35;5.88;;;;;;;18.19;56.73;102380.94;6250675;22;20070;-78
2023/06/05 07:10:33;;;;;;;6.25;5.60;;;;;;;18.22;56.40;102382.00;6251010;22;20095;-78
2023/06/05 07:13:00;;;;;;;7.57;5.88;;;;;;;18.28;55.11;102385.56;6250857;22;20497;-78
2023/06/05 07:15:26;;;;;;;5.82;5.32;;;;;;;18.17;55.35;102385.28;6248861;22;20080;-78
2023/06/05 07:17:53;;;;;;;6.05;5.45;;;;;;;18.12;55.81;102383.97;6251005;22;20035;-76
2023/06/05 07:20:19;;;;;;;9.32;5.70;;;;;;;18.14;56.47;102388.91;6248511;22;20028;-76
2023/06/05 07:22:46;;;;;;;7.78;5.90;;;;;;;18.10;55.75;102391.00;6250899;22;20016;-76
2023/06/05 07:25:15;;;;;;;6.47;5.90;;;;;;;18.22;55.71;102382.75;6250480;22;20021;-78
2023/06/05 07:27:45;;;;;;;6.25;5.65;;;;;;;18.43;55.41;102383.72;6251161;22;20063;-83
2023/06/05 07:30:15;;;;;;;6.90;6.22;;;;;;;18.40;55.33;102394.66;6249997;22;20024;-80
2023/06/05 07:32:42;;;;;;;7.05;5.45;;;;;;;18.53;55.80;102385.19;6254346;22;20016;-83
2023/06/05 07:35:09;;;;;;;5.63;5.13;;;;;;;18.78;55.54;102383.34;6253028;22;20493;-83
2023/06/05 07:37:36;;;;;;;6.53;5.22;;;;;;;18.79;53.63;102382.88;6255243;22;20740;-83
2023/06/05 07:40:03;;;;;;;8.60;5.10;;;;;;;18.99;53.90;102385.00;6256567;22;20020;-83
2023/06/05 07:42:29;;;;;;;7.30;5.38;;;;;;;19.10;53.21;102381.81;6249117;22;20092;-83
2023/06/05 07:44:56;;;;;;;6.63;5.90;;;;;;;19.07;52.83;102385.41;6250766;22;20021;-82
2023/06/05 07:47:22;;;;;;;6.55;5.95;;;;;;;19.01;52.62;102374.50;6250366;22;20017;-83
2023/06/05 07:49:59;;;;;;;8.80;5.72;;;;;;;19.04;53.53;102379.00;6250350;22;20071;-83
2023/06/05 07:52:26;;;;;;;7.75;5.05;;;;;;;19.22;53.06;102383.50;6250717;22;20761;-83
2023/06/05 07:54:53;;;;;;;7.22;5.93;;;;;;;19.41;52.75;102382.19;6248936;22;20194;-84
2023/06/05 07:57:20;;;;;;;8.45;5.72;;;;;;;19.40;51.87;102383.41;6250318;22;20013;-83
2023/06/05 07:59:48;;;;;;;5.90;5.35;;;;;;;19.41;51.32;102389.53;6248840;22;20450;-84
2023/06/05 08:02:16;;;;;;;7.57;5.55;;;;;;;19.52;51.25;102390.53;6250632;22;20449;-83
2023/06/05 08:04:44;;;;;;;5.80;5.30;;;;;;;19.57;50.92;102381.81;6249642;22;20099;-83
2023/06/05 08:07:11;;;;;;;8.13;5.40;;;;;;;19.63;51.09;102379.94;6248867;22;20024;-84
2023/06/05 08:09:39;;;;;;;10.48;5.97;;;;;;;19.92;51.15;102389.31;6250670;22;20086;-84
2023/06/05 08:12:08;;;;;;;7.43;5.20;;;;;;;20.03;50.52;102392.19;6227570;22;20024;-82
2023/06/05 08:14:35;;;;;;;7.50;6.00;;;;;;;20.18;50.48;102390.22;6253284;22;20092;-80
2023/06/05 08:17:01;;;;;;;6.78;6.28;;;;;;;20.30;50.03;102380.34;6250777;22;20443;-76
2023/06/05 08:19:28;;;;;;;8.23;5.65;;;;;;;20.44;49.57;102379.59;6249791;22;20023;-75
2023/06/05 08:21:56;;;;;;;7.32;5.85;;;;;;;20.45;48.65;102381.09;6248735;22;20048;-74
2023/06/05 08:24:23;;;;;;;6.65;6.07;;;;;;;20.51;49.01;102375.75;6250249;22;20473;-76
2023/06/05 08:26:49;;;;;;;6.32;5.80;;;;;;;20.52;49.17;102375.28;6248914;22;20097;-77
2023/06/05 08:29:16;;;;;;;6.20;5.60;;;;;;;20.73;48.91;102372.66;6250135;22;20469;-78
2023/06/05 08:31:42;;;;;;;9.68;5.57;;;;;;;20.78;48.78;102374.69;6250409;22;20067;-76
2023/06/05 08:34:10;;;;;;;5.47;4.85;;;;;;;20.93;48.09;102375.38;6249996;22;20020;-80
2023/06/05 08:36:36;;;;;;;6.60;5.97;;;;;;;20.97;47.34;102373.94;6248708;22;20028;-79
2023/06/05 08:39:04;;;;;;;6.22;5.72;;;;;;;21.03;47.11;102368.59;6223715;22;20101;-79
2023/06/05 08:41:32;;;;;;;5.78;5.38;;;;;;;21.13;46.80;102371.94;6223499;22;20088;-78
2023/06/05 08:43:59;;;;;;;6.00;5.10;;;;;;;21.21;46.49;102362.19;6248765;22;20400;-75
2023/06/05 08:46:28;;;;;;;5.95;5.45;;;;;;;21.21;46.50;102368.34;6250405;22;20067;-76
2023/06/05 08:48:55;;;;;;;6.28;5.78;;;;;;;21.27;46.03;102360.28;6250202;22;20076;-75
2023/06/05 08:51:22;;;;;;;6.05;5.60;;;;;;;21.34;46.57;102356.44;6249957;22;20020;-76
2023/06/05 08:54:01;;;;;;;8.30;5.38;;;;;;;21.38;46.24;102363.13;6250283;22;20091;-81
2023/06/05 08:56:27;;;;;;;6.43;5.45;;;;;;;21.38;46.36;102365.84;6250213;22;20017;-78
2023/06/05 08:58:55;;;;;;;8.18;6.15;;;;;;;21.43;46.72;102362.47;6248477;22;20079;-76
2023/06/05 09:01:22;;;;;;;6.47;5.80;;;;;;;21.36;46.48;102357.44;6247905;22;20020;-76
2023/06/05 09:03:48;;;;;;;7.22;6.57;;;;;;;21.36;46.65;102365.56;6250463;22;20016;-76
2023/06/05 09:06:15;;;;;;;6.10;5.70;;;;;;;21.61;46.46;102364.84;6250211;22;20078;-77
2023/06/05 09:08:41;;;;;;;5.53;5.13;;;;;;;21.66;45.23;102359.97;6248707;22;20012;-77
2023/06/05 09:11:28;;;;;;;6.03;5.22;;;;;;;21.76;45.41;102356.63;6249827;22;20016;-78
2023/06/05 09:13:56;;;;;;;5.53;5.03;;;;;;;21.81;45.59;102360.59;6250319;22;20025;-76
2023/06/05 09:16:33;;;;;;;14.80;6.18;;;;;;;21.95;45.46;102355.06;6247204;22;20071;-76
2023/06/05 09:19:01;;;;;;;6.05;5.50;;;;;;;21.96;44.05;102361.25;6247966;22;20020;-77
2023/06/05 09:21:30;;;;;;;9.98;5.22;;;;;;;22.17;44.25;102356.50;6248603;22;20023;-76
2023/06/05 09:24:13;;;;;;;7.05;5.32;;;;;;;22.38;44.46;102349.00;6250039;22;20104;-76
2023/06/05 09:26:53;;;;;;;6.00;5.50;;;;;;;22.34;43.92;102353.91;6250087;22;20450;-76
2023/06/05 09:29:21;;;;;;;8.15;4.88;;;;;;;22.29;43.50;102349.94;6250000;22;20012;-76
2023/06/05 09:31:48;;;;;;;12.50;5.43;;;;;;;22.34;43.90;102348.50;6249375;22;20414;-76
2023/06/05 09:34:31;;;;;;;5.60;5.10;;;;;;;22.51;43.77;102346.59;6249771;22;20087;-78
2023/06/05 09:37:00;;;;;;;6.28;5.53;;;;;;;22.55;43.13;102355.25;6249914;22;20482;-78
2023/06/05 09:39:28;;;;;;;7.28;5.25;;;;;;;22.47;42.99;102341.41;6249767;22;20096;-74
2023/06/05 09:41:57;;;;;;;13.82;6.22;;;;;;;22.54;43.51;102340.22;6250125;22;20071;-75
2023/06/05 09:44:25;;;;;;;5.72;5.20;;;;;;;22.63;43.47;102348.91;6222584;22;20447;-78
2023/06/05 09:47:07;;;;;;;5.63;5.20;;;;;;;22.62;43.61;102333.09;6249387;22;20362;-77
2023/06/05 09:49:40;;;;;;;6.97;5.32;;;;;;;22.75;43.44;102333.44;6250268;22;20013;-78
2023/06/05 09:52:08;;;;;;;6.53;4.70;;;;;;;22.87;43.47;102334.97;6249333;22;20047;-78
2023/06/05 09:54:37;;;;;;;7.93;5.25;;;;;;;22.88;42.76;102336.47;6254578;22;20001;-81
2023/06/05 09:57:05;;;;;;;10.32;5.15;;;;;;;23.00;42.71;102322.94;6252416;22;20501;-79
2023/06/05 09:59:34;;;;;;;4.88;4.47;;;;;;;22.88;42.54;102316.72;6249136;22;20100;-75
2023/06/05 10:02:05;;;;;;;7.00;4.78;;;;;;;22.91;42.02;102324.63;6249818;22;20433;-76
2023/06/05 10:04:42;;;;;;;5.28;4.78;;;;;;;22.98;42.24;102328.09;6249896;22;20096;-75
2023/06/05 10:07:09;;;;;;;7.00;4.72;;;;;;;23.11;42.58;102334.59;6247625;22;20028;-75
2023/06/05 10:09:36;;;;;;;7.35;5.55;;;;;;;23.27;42.05;102323.00;6249696;22;20041;-75
2023/06/05 10:12:04;;;;;;;4.95;4.32;;;;;;;23.37;42.04;102323.53;6249561;22;20435;-76
2023/06/05 10:14:30;;;;;;;7.57;4.72;;;;;;;23.39;42.24;102318.34;6247507;22;20122;-76
2023/06/05 10:16:58;;;;;;;5.13;4.70;;;;;;;23.33;42.48;102323.03;6222429;22;20016;-76
2023/06/05 10:19:25;;;;;;;5.00;4.65;;;;;;;23.61;41.64;102320.38;6249269;22;20091;-76
2023/06/05 10:21:51;;;;;;;5.05;4.60;;;;;;;23.55;41.19;102320.38;6249638;22;20038;-76
2023/06/05 10:24:29;;;;;;;5.78;4.47;;;;;;;23.79;41.57;102316.44;6248997;22;20075;-76
2023/06/05 10:26:56;;;;;;;5.25;4.60;;;;;;;23.89;40.72;102309.50;6249735;22;20012;-76
2023/06/05 10:29:53;;;;;;;7.57;4.88;;;;;;;24.01;41.60;102307.50;6249912;22;20067;-76
2023/06/05 10:32:29;;;;;;;5.50;5.00;;;;;;;24.22;41.58;102314.16;6250210;22;20351;-75
2023/06/05 10:35:38;;;;;;;5.35;4.60;;;;;;;24.31;41.20;102307.75;6224204;22;20027;-75
2023/06/05 10:38:18;;;;;;;5.07;4.68;;;;;;;24.36;40.65;102301.56;6250663;22;20063;-80
2023/06/05 10:40:52;;;;;;;6.55;4.45;;;;;;;24.38;40.24;102304.53;6251064;22;20017;-78
2023/06/05 10:43:25;;;;;;;9.02;4.32;;;;;;;24.53;40.67;102297.53;6249892;22;20012;-78
2023/06/05 10:45:53;;;;;;;4.50;4.18;;;;;;;24.42;39.75;102305.72;6251217;22;20024;-78
2023/06/05 10:49:05;;;;;;;11.30;4.28;;;;;;;24.34;40.16;102299.34;6251142;22;20100;-76
2023/06/05 10:51:42;;;;;;;4.35;3.92;;;;;;;24.30;38.94;102300.84;6251165;22;20016;-76
2023/06/05 10:54:14;;;;;;;4.00;3.80;;;;;;;24.62;39.42;102293.06;6250790;22;20084;-76
2023/06/05 10:57:03;;;;;;;4.53;3.90;;;;;;;24.62;39.25;102293.78;6249450;22;20052;-78
2023/06/05 10:59:35;;;;;;;4.70;4.03;;;;;;;24.50;39.48;102293.09;6250178;22;20036;-76
2023/06/05 11:02:11;;;;;;;4.63;3.70;;;;;;;24.45;39.50;102295.81;6251175;22;20013;-77
2023/06/05 11:04:46;;;;;;;6.15;3.80;;;;;;;24.30;40.48;102293.41;6250870;22;20013;-76
2023/06/05 11:07:16;;;;;;;4.10;3.80;;;;;;;24.52;39.75;102282.44;6250623;22;20020;-77
2023/06/05 11:10:01;;;;;;;4.45;4.15;;;;;;;24.80;39.86;102287.75;6250890;22;20013;-74
2023/06/05 11:12:43;;;;;;;4.15;3.85;;;;;;;24.79;39.08;102291.00;6249961;22;20477;-75
2023/06/05 11:15:11;;;;;;;4.82;3.78;;;;;;;24.77;39.77;102279.88;6250470;22;20020;-76
2023/06/05 11:17:39;;;;;;;3.78;3.58;;;;;;;24.93;39.04;102276.31;6250847;22;20450;-76
2023/06/05 11:20:09;;;;;;;14.10;12.88;;;;;;;25.13;39.45;102286.16;6250167;22;20079;-77
2023/06/05 11:22:57;;;;;;;16.05;14.57;;;;;;;25.39;39.71;102278.28;6250943;22;20012;-77
2023/06/05 11:25:26;;;;;;;12.02;4.68;;;;;;;25.52;38.83;102285.88;6250193;22;20067;-77
2023/06/05 11:28:21;;;;;;;3.88;3.58;;;;;;;25.56;38.24;102273.44;6250078;22;20021;-77
2023/06/05 11:30:49;;;;;;;3.83;3.53;;;;;;;25.50;38.53;102277.47;6250798;22;20375;-78
2023/06/05 11:33:17;;;;;;;3.75;3.45;;;;;;;25.49;38.78;102276.72;6250285;22;20013;-77